Time;durP1;ratioP1;P1;durP2;ratioP2;P2;SDS_P1;SDS_P2;PMS_P1;PMS_P2;Temp;Humidity;BMP_temperature;BMP_pressure;BME280_temperature;BME280_humidity;BME280_pressure;Samples;Min_cycle;Max_cycle;Signal;HPM_P1;HPM_P2
2022/12/02 00:01:10;;;;;;;33.83;18.13;;;4.80;99.90;;;;;;5030237;28;20535;-70
2022/12/02 00:03:38;;;;;;;35.30;19.13;;;4.70;99.90;;;;;;5016716;28;20088;-71
2022/12/02 00:06:27;;;;;;;31.98;17.73;;;4.70;99.90;;;;;;5014854;28;20045;-69
2022/12/02 00:09:01;;;;;;;33.47;17.33;;;4.70;99.90;;;;;;5020567;28;20515;-69
2022/12/02 00:11:30;;;;;;;34.55;18.35;;;4.70;99.90;;;;;;5024928;28;20037;-70
2022/12/02 00:14:13;;;;;;;37.60;18.77;;;4.70;99.90;;;;;;5022097;28;20107;-69
2022/12/02 00:16:40;;;;;;;34.10;18.88;;;4.70;99.90;;;;;;5025790;28;20045;-69
2022/12/02 00:19:08;;;;;;;38.30;20.50;;;4.70;99.90;;;;;;5004524;28;20054;-69
2022/12/02 00:21:35;;;;;;;34.38;19.20;;;4.60;99.90;;;;;;5024023;28;20450;-69
2022/12/02 00:24:03;;;;;;;33.85;19.02;;;4.60;99.90;;;;;;5032655;28;20041;-69
2022/12/02 00:26:30;;;;;;;38.38;19.23;;;4.60;99.90;;;;;;5025324;28;20034;-69
2022/12/02 00:28:58;;;;;;;34.65;19.63;;;4.60;99.90;;;;;;5004584;28;20048;-69
2022/12/02 00:31:26;;;;;;;35.33;20.15;;;4.60;99.90;;;;;;5010051;28;20084;-71
2022/12/02 00:33:56;;;;;;;34.80;19.52;;;4.60;99.90;;;;;;5025739;28;20484;-69
2022/12/02 00:36:24;;;;;;;35.35;19.20;;;4.60;99.90;;;;;;5022469;28;20755;-70
2022/12/02 00:38:52;;;;;;;35.70;19.35;;;4.50;99.90;;;;;;5028549;28;20050;-70
2022/12/02 00:41:19;;;;;;;35.88;18.67;;;4.60;99.90;;;;;;5027023;28;20401;-69
2022/12/02 00:46:33;;;;;;;39.33;20.98;;;4.50;99.90;;;;;;5019482;28;20507;-70
2022/12/02 00:49:10;;;;;;;36.53;19.92;;;4.50;99.90;;;;;;5028073;28;20070;-70
2022/12/02 00:51:40;;;;;;;37.03;19.65;;;4.50;99.90;;;;;;5005255;28;20049;-70
2022/12/02 00:54:09;;;;;;;38.60;20.02;;;4.50;99.90;;;;;;5023902;28;20042;-69
2022/12/02 00:56:37;;;;;;;39.15;19.45;;;4.50;99.90;;;;;;5028566;28;20053;-69
2022/12/02 00:59:05;;;;;;;37.10;19.40;;;4.50;99.90;;;;;;5024975;28;20047;-69
2022/12/02 01:01:34;;;;;;;37.67;19.23;;;4.50;99.90;;;;;;5026939;28;20052;-71
2022/12/02 01:04:04;;;;;;;40.47;20.63;;;4.50;99.90;;;;;;5018461;28;20100;-70
2022/12/02 01:06:31;;;;;;;40.33;20.90;;;4.50;99.90;;;;;;5023904;28;20033;-69
2022/12/02 01:08:58;;;;;;;39.35;21.00;;;4.50;99.90;;;;;;5014351;28;20066;-69
2022/12/02 01:11:26;;;;;;;37.35;20.08;;;4.50;99.90;;;;;;5028690;28;20041;-69
2022/12/02 01:13:53;;;;;;;39.00;19.60;;;4.50;99.90;;;;;;5029417;28;20121;-68
2022/12/02 01:16:20;;;;;;;41.13;19.50;;;4.50;99.90;;;;;;5017625;28;20056;-69
2022/12/02 01:18:48;;;;;;;39.50;20.42;;;4.50;99.90;;;;;;5019128;28;20432;-70
2022/12/02 01:21:15;;;;;;;43.35;20.55;;;4.50;99.90;;;;;;5024096;28;20148;-69
2022/12/02 01:23:42;;;;;;;39.13;20.23;;;4.50;99.90;;;;;;5029364;28;20084;-69
2022/12/02 01:26:10;;;;;;;39.22;21.38;;;4.50;99.90;;;;;;5024871;28;20048;-70
2022/12/02 01:28:37;;;;;;;39.05;21.00;;;4.50;99.90;;;;;;5027606;28;20433;-70
2022/12/02 01:31:04;;;;;;;40.63;20.55;;;4.40;99.90;;;;;;5020737;28;20053;-70
2022/12/02 01:33:32;;;;;;;39.20;19.70;;;4.40;99.90;;;;;;5030605;28;20108;-70
2022/12/02 01:35:59;;;;;;;40.35;20.70;;;4.40;99.90;;;;;;5015831;28;20466;-71
2022/12/02 01:38:26;;;;;;;38.03;19.25;;;4.50;99.90;;;;;;5013258;28;20049;-70
2022/12/02 01:40:54;;;;;;;41.83;20.75;;;4.50;99.90;;;;;;5030208;28;20038;-70
2022/12/02 01:43:21;;;;;;;37.22;19.98;;;4.50;99.90;;;;;;5012824;28;20061;-70
2022/12/02 01:45:49;;;;;;;39.83;20.88;;;4.40;99.90;;;;;;5020519;28;20041;-71
2022/12/02 01:48:16;;;;;;;41.40;20.65;;;4.50;99.90;;;;;;5026211;28;20046;-69
2022/12/02 01:50:44;;;;;;;40.10;20.58;;;4.40;99.90;;;;;;5014560;28;20492;-69
2022/12/02 01:53:12;;;;;;;35.85;19.02;;;4.50;99.90;;;;;;5027962;28;20400;-71
2022/12/02 01:55:39;;;;;;;38.10;20.38;;;4.40;99.90;;;;;;5028307;28;20033;-70
2022/12/02 01:58:10;;;;;;;38.13;20.98;;;4.40;99.90;;;;;;5021495;28;20397;-72
2022/12/02 02:00:38;;;;;;;36.35;19.50;;;4.40;99.90;;;;;;5027602;28;20136;-71
2022/12/02 02:03:05;;;;;;;40.65;20.42;;;4.40;99.90;;;;;;5025994;28;20041;-70
2022/12/02 02:05:33;;;;;;;41.60;20.10;;;4.40;99.90;;;;;;5028723;28;20048;-70
2022/12/02 02:08:07;;;;;;;35.40;18.63;;;4.50;99.90;;;;;;5022509;28;20445;-70
2022/12/02 02:10:36;;;;;;;42.67;20.60;;;4.40;99.90;;;;;;5027562;28;20614;-70
2022/12/02 02:13:05;;;;;;;33.83;18.67;;;4.40;99.90;;;;;;5029537;28;20496;-69
2022/12/02 02:15:34;;;;;;;42.13;19.98;;;4.40;99.90;;;;;;5027666;28;20100;-69
2022/12/02 02:18:01;;;;;;;35.67;19.27;;;4.40;99.90;;;;;;5028784;28;20045;-67
2022/12/02 02:20:33;;;;;;;39.28;20.48;;;4.40;99.90;;;;;;5020238;28;20046;-68
2022/12/02 02:23:04;;;;;;;41.28;20.70;;;4.30;99.90;;;;;;5010476;28;20412;-69
2022/12/02 02:25:46;;;;;;;43.83;21.92;;;4.30;99.90;;;;;;5027847;28;20072;-68
2022/12/02 02:28:17;;;;;;;;;;;4.30;99.90;;;;;;5024984;28;20045;-69
2022/12/02 02:30:44;;;;;;;43.95;21.45;;;4.20;99.90;;;;;;5022086;28;19963;-68
2022/12/02 02:33:14;;;;;;;41.35;20.48;;;4.10;99.90;;;;;;5005992;28;20136;-68
2022/12/02 02:35:44;;;;;;;43.20;20.30;;;4.20;99.90;;;;;;5024560;28;20057;-68
2022/12/02 02:38:15;;;;;;;41.65;21.13;;;4.10;99.90;;;;;;5018688;28;20045;-69
2022/12/02 02:40:44;;;;;;;41.65;20.48;;;4.20;99.90;;;;;;5020757;28;20041;-68
2022/12/02 02:43:15;;;;;;;41.92;21.15;;;4.10;99.90;;;;;;5026027;28;20124;-68
2022/12/02 02:45:43;;;;;;;42.85;20.98;;;4.10;99.90;;;;;;5022351;28;20415;-68
2022/12/02 02:48:15;;;;;;;40.20;21.27;;;4.10;99.90;;;;;;5029077;28;20407;-69
2022/12/02 02:50:46;;;;;;;40.92;20.92;;;4.10;99.90;;;;;;5026368;28;20563;-68
2022/12/02 02:53:17;;;;;;;43.15;20.13;;;4.10;99.90;;;;;;5016166;28;20045;-70
2022/12/02 02:55:45;;;;;;;37.70;20.23;;;4.10;99.90;;;;;;5014315;28;20053;-68
2022/12/02 02:58:12;;;;;;;39.30;20.10;;;4.10;99.90;;;;;;4999612;28;20148;-69
2022/12/02 03:00:48;;;;;;;41.85;21.05;;;4.00;99.90;;;;;;5003380;28;20061;-69
2022/12/02 03:03:18;;;;;;;41.95;20.88;;;4.00;99.90;;;;;;5015080;28;20507;-69
2022/12/02 03:05:49;;;;;;;39.75;18.85;;;4.00;99.90;;;;;;4999096;28;20069;-69
2022/12/02 03:08:17;;;;;;;37.53;19.40;;;4.00;99.90;;;;;;5014283;28;20037;-70
2022/12/02 03:10:45;;;;;;;43.75;20.90;;;4.00;99.90;;;;;;5025772;28;20049;-69
2022/12/02 03:13:12;;;;;;;38.38;20.88;;;3.90;99.90;;;;;;5024432;28;20046;-69
2022/12/02 03:15:40;;;;;;;44.67;20.50;;;3.90;99.90;;;;;;5030055;28;20041;-69
2022/12/02 03:18:07;;;;;;;44.95;20.45;;;3.90;99.90;;;;;;5029756;28;20052;-69
2022/12/02 03:20:35;;;;;;;39.20;20.17;;;3.90;99.90;;;;;;5030305;28;20415;-68
2022/12/02 03:23:02;;;;;;;38.55;19.70;;;3.90;99.90;;;;;;5021184;28;20602;-68
2022/12/02 03:25:30;;;;;;;39.63;19.73;;;3.90;99.90;;;;;;5010026;28;20500;-69
2022/12/02 03:27:58;;;;;;;40.75;19.65;;;3.90;99.90;;;;;;5001299;28;20050;-68
2022/12/02 03:30:26;;;;;;;44.42;20.50;;;3.80;99.90;;;;;;5024074;28;20088;-69
2022/12/02 03:32:53;;;;;;;44.95;20.80;;;3.90;99.90;;;;;;5029921;28;20420;-70
2022/12/02 03:35:21;;;;;;;39.58;18.65;;;3.90;99.90;;;;;;5028153;28;20444;-68
2022/12/02 03:37:48;;;;;;;39.00;19.33;;;3.90;99.90;;;;;;5010032;28;20389;-70
2022/12/02 03:40:16;;;;;;;43.83;20.83;;;3.90;99.90;;;;;;5010338;28;20420;-68
2022/12/02 03:42:43;;;;;;;39.22;20.80;;;3.90;99.90;;;;;;4996164;28;20060;-68
2022/12/02 03:45:12;;;;;;;40.65;19.95;;;3.80;99.90;;;;;;5005926;28;20053;-68
2022/12/02 03:47:40;;;;;;;37.72;19.58;;;3.80;99.90;;;;;;5024503;28;20479;-70
2022/12/02 03:50:08;;;;;;;38.08;19.63;;;3.80;99.90;;;;;;5018234;28;20093;-69
2022/12/02 03:52:36;;;;;;;41.42;20.67;;;3.80;99.90;;;;;;5025438;28;20045;-70
2022/12/02 03:55:04;;;;;;;41.60;20.33;;;3.80;99.90;;;;;;5006228;28;20053;-70
2022/12/02 03:57:33;;;;;;;40.13;19.65;;;3.80;99.90;;;;;;5025703;28;20103;-69
2022/12/02 04:00:00;;;;;;;42.13;20.75;;;3.80;99.90;;;;;;5008527;28;20576;-70
2022/12/02 04:02:38;;;;;;;40.92;20.20;;;3.80;99.90;;;;;;5012977;28;20462;-69
2022/12/02 04:05:06;;;;;;;42.10;19.63;;;3.80;99.90;;;;;;5026374;28;20036;-69
2022/12/02 04:07:33;;;;;;;45.42;22.88;;;3.90;99.90;;;;;;5003098;28;21129;-70
2022/12/02 04:10:01;;;;;;;39.38;19.27;;;3.80;99.90;;;;;;4998332;28;20048;-69
2022/12/02 04:12:28;;;;;;;37.63;19.33;;;3.90;99.90;;;;;;5025626;28;20034;-69
2022/12/02 04:14:56;;;;;;;38.95;18.65;;;3.80;99.90;;;;;;5021743;28;20045;-69
2022/12/02 04:17:23;;;;;;;36.38;19.70;;;3.80;99.90;;;;;;4997885;28;20053;-68
2022/12/02 04:19:50;;;;;;;41.25;19.73;;;3.90;99.90;;;;;;5011562;28;20145;-70
2022/12/02 04:22:17;;;;;;;38.10;18.80;;;3.90;99.90;;;;;;5026317;28;20046;-70
2022/12/02 04:24:45;;;;;;;33.72;17.52;;;3.90;99.90;;;;;;5027925;28;20041;-70
2022/12/02 04:27:12;;;;;;;38.50;18.73;;;3.90;99.90;;;;;;5030791;28;20045;-68
2022/12/02 04:29:39;;;;;;;36.35;18.50;;;3.80;99.90;;;;;;5025260;28;20100;-68
2022/12/02 04:32:06;;;;;;;36.92;18.25;;;3.90;99.90;;;;;;5021335;28;20468;-68
2022/12/02 04:34:34;;;;;;;40.28;19.55;;;3.80;99.90;;;;;;5030790;28;20053;-69
2022/12/02 04:37:01;;;;;;;40.10;19.48;;;3.80;99.90;;;;;;5001164;28;20050;-68
2022/12/02 04:39:28;;;;;;;40.67;19.45;;;3.80;99.90;;;;;;5020876;28;20539;-68
2022/12/02 04:41:55;;;;;;;35.40;18.98;;;3.80;99.90;;;;;;5022513;28;20381;-69
2022/12/02 04:44:23;;;;;;;39.17;19.83;;;3.80;99.90;;;;;;5023366;28;20459;-68
2022/12/02 04:46:50;;;;;;;42.25;20.13;;;3.80;99.90;;;;;;5027482;28;20252;-69
2022/12/02 04:49:18;;;;;;;38.85;19.23;;;3.80;99.90;;;;;;5030132;28;20449;-68
2022/12/02 04:51:45;;;;;;;37.78;20.27;;;3.80;99.90;;;;;;5027569;28;20361;-68
2022/12/02 04:54:12;;;;;;;37.05;19.30;;;3.80;99.90;;;;;;5030669;28;20069;-68
2022/12/02 04:56:40;;;;;;;37.30;19.65;;;3.80;99.90;;;;;;5027307;28;20069;-68
2022/12/02 04:59:07;;;;;;;36.33;19.13;;;3.80;99.90;;;;;;5031150;28;20033;-68
2022/12/02 05:01:35;;;;;;;36.97;18.42;;;3.80;99.90;;;;;;5029872;28;20460;-70
2022/12/02 05:04:02;;;;;;;35.63;17.40;;;3.80;99.90;;;;;;5019779;28;20111;-67
2022/12/02 05:06:29;;;;;;;35.05;17.95;;;3.80;99.90;;;;;;5027606;28;20089;-69
2022/12/02 05:08:56;;;;;;;37.85;19.05;;;3.80;99.90;;;;;;5029988;28;20496;-69
2022/12/02 05:11:24;;;;;;;38.53;18.52;;;3.80;99.90;;;;;;5031123;28;20037;-68
2022/12/02 05:13:51;;;;;;;36.30;18.77;;;3.80;99.90;;;;;;5020786;28;20033;-68
2022/12/02 05:16:18;;;;;;;45.15;23.33;;;3.80;99.90;;;;;;5029535;28;20064;-68
2022/12/02 05:18:46;;;;;;;41.92;21.17;;;3.80;99.90;;;;;;5020949;28;20047;-69
2022/12/02 05:21:13;;;;;;;41.67;21.27;;;3.90;99.90;;;;;;5030091;28;20053;-68
2022/12/02 05:23:40;;;;;;;36.92;19.33;;;3.90;99.90;;;;;;5031458;28;20092;-68
2022/12/02 05:26:07;;;;;;;33.55;17.52;;;3.90;99.90;;;;;;5018067;28;20409;-68
2022/12/02 05:28:35;;;;;;;41.35;19.05;;;3.90;99.90;;;;;;5012935;28;20072;-69
2022/12/02 05:31:02;;;;;;;35.20;17.70;;;3.90;99.90;;;;;;5026712;28;20038;-68
2022/12/02 05:33:29;;;;;;;39.22;18.65;;;3.90;99.90;;;;;;5030759;28;20057;-69
2022/12/02 05:35:57;;;;;;;39.90;19.30;;;3.90;99.90;;;;;;5023347;28;20042;-69
2022/12/02 05:38:24;;;;;;;36.78;19.92;;;3.90;99.90;;;;;;5015033;28;20085;-68
2022/12/02 05:40:55;;;;;;;45.53;22.55;;;3.90;99.90;;;;;;5026595;28;20049;-68
2022/12/02 05:43:24;;;;;;;42.65;20.98;;;3.90;99.90;;;;;;5028372;28;20041;-68
2022/12/02 05:45:57;;;;;;;38.33;19.58;;;3.90;99.90;;;;;;5022959;28;20120;-69
2022/12/02 05:48:25;;;;;;;42.20;21.92;;;3.90;99.90;;;;;;5021889;28;20042;-69
2022/12/02 05:50:53;;;;;;;34.08;18.10;;;3.90;99.90;;;;;;5020732;28;20137;-69
2022/12/02 05:53:24;;;;;;;40.33;19.42;;;3.90;99.90;;;;;;5029568;28;20053;-68
2022/12/02 05:55:54;;;;;;;36.75;19.42;;;3.90;99.90;;;;;;5020717;28;20500;-69
2022/12/02 05:58:22;;;;;;;38.65;17.65;;;3.90;99.90;;;;;;5020775;28;20512;-69
2022/12/02 06:00:58;;;;;;;35.72;17.52;;;3.90;99.90;;;;;;5014009;28;20049;-68
2022/12/02 06:03:26;;;;;;;35.42;16.63;;;3.80;99.90;;;;;;5026330;28;20517;-69
2022/12/02 06:05:53;;;;;;;33.03;16.85;;;3.90;99.90;;;;;;5029479;28;20041;-69
2022/12/02 06:08:24;;;;;;;32.90;16.45;;;3.80;99.90;;;;;;5013603;28;20042;-70
2022/12/02 06:11:00;;;;;;;34.33;17.35;;;3.80;99.90;;;;;;5013217;28;20033;-69
2022/12/02 06:13:31;;;;;;;33.97;18.38;;;3.80;99.90;;;;;;5014217;28;20045;-69
2022/12/02 06:15:59;;;;;;;36.33;17.50;;;3.80;99.90;;;;;;5018692;28;20125;-69
2022/12/02 06:18:31;;;;;;;31.05;17.52;;;3.70;99.90;;;;;;5027317;28;20320;-70
2022/12/02 06:21:03;;;;;;;36.63;18.83;;;3.70;99.90;;;;;;5017083;28;20042;-69
2022/12/02 06:23:31;;;;;;;38.30;18.80;;;3.70;99.90;;;;;;5014249;28;20053;-69
2022/12/02 06:25:59;;;;;;;37.38;19.73;;;3.80;99.90;;;;;;5004915;28;20049;-70
2022/12/02 06:28:33;;;;;;;40.60;20.77;;;3.80;99.90;;;;;;5015708;28;20179;-69
2022/12/02 06:31:20;;;;;;;40.15;20.65;;;3.80;99.90;;;;;;5014594;28;20041;-70
2022/12/02 06:33:49;;;;;;;43.22;21.63;;;3.80;99.90;;;;;;5015325;28;20156;-69
2022/12/02 06:36:26;;;;;;;41.20;20.83;;;3.80;99.90;;;;;;5018475;28;20566;-70
2022/12/02 06:38:55;;;;;;;44.13;21.10;;;3.90;99.90;;;;;;5014442;28;20056;-70
2022/12/02 06:41:23;;;;;;;39.83;20.33;;;3.90;99.90;;;;;;5020707;28;20487;-71
2022/12/02 06:46:53;;;;;;;43.28;21.25;;;4.00;99.90;;;;;;5021040;28;20064;-69
2022/12/02 06:49:36;;;;;;;40.50;20.23;;;3.90;99.90;;;;;;5010957;28;20038;-70
2022/12/02 06:52:16;;;;;;;46.58;23.17;;;3.90;99.90;;;;;;4996624;28;20045;-70
2022/12/02 06:54:45;;;;;;;47.70;22.40;;;3.90;99.90;;;;;;5012184;28;20184;-71
2022/12/02 06:57:17;;;;;;;50.35;24.13;;;3.90;99.90;;;;;;5016259;28;20052;-71
2022/12/02 06:59:50;;;;;;;44.80;21.92;;;3.90;99.90;;;;;;5017344;28;20038;-70
2022/12/02 07:02:31;;;;;;;46.55;22.35;;;3.90;99.90;;;;;;5026492;28;20103;-71
2022/12/02 07:04:59;;;;;;;45.88;22.02;;;3.90;99.90;;;;;;5014886;28;20061;-71
2022/12/02 07:07:28;;;;;;;43.70;21.63;;;4.00;99.90;;;;;;5027176;28;20080;-70
2022/12/02 07:10:06;;;;;;;45.88;21.60;;;4.00;99.90;;;;;;5021209;28;20042;-72
2022/12/02 07:12:37;;;;;;;43.08;20.92;;;4.00;99.90;;;;;;5021982;28;20188;-70
2022/12/02 07:15:26;;;;;;;48.25;21.60;;;4.00;99.90;;;;;;5004618;28;20049;-71
2022/12/02 07:17:58;;;;;;;51.75;23.75;;;4.00;99.90;;;;;;5019634;28;20068;-71
2022/12/02 07:20:37;;;;;;;49.35;22.05;;;4.00;99.90;;;;;;5029472;28;20045;-70
2022/12/02 07:23:23;;;;;;;48.75;23.60;;;4.00;99.90;;;;;;5028255;28;20049;-71
2022/12/02 07:25:53;;;;;;;53.88;25.73;;;4.00;99.90;;;;;;5016848;28;20054;-69
2022/12/02 07:28:25;;;;;;;48.50;23.55;;;4.00;99.90;;;;;;5008539;28;20045;-69
2022/12/02 07:31:01;;;;;;;49.55;24.08;;;4.00;99.90;;;;;;5008780;28;20547;-70
2022/12/02 07:33:29;;;;;;;49.10;23.25;;;4.00;99.90;;;;;;5026732;28;20580;-70
2022/12/02 07:35:56;;;;;;;50.50;23.63;;;4.00;99.90;;;;;;5024258;28;20042;-70
2022/12/02 07:38:24;;;;;;;52.50;24.42;;;4.00;99.90;;;;;;4992510;28;20096;-70
2022/12/02 07:41:12;;;;;;;48.28;23.70;;;4.00;99.90;;;;;;4995496;28;20045;-70
2022/12/02 07:43:40;;;;;;;51.42;25.40;;;4.00;99.90;;;;;;5007250;28;20046;-70
2022/12/02 07:46:07;;;;;;;53.45;24.90;;;4.00;99.90;;;;;;5010066;28;20104;-69
2022/12/02 07:48:34;;;;;;;52.42;24.73;;;4.00;99.90;;;;;;5007751;28;20516;-70
2022/12/02 07:51:02;;;;;;;54.97;25.48;;;4.00;99.90;;;;;;4990672;28;20074;-70
2022/12/02 07:53:29;;;;;;;53.97;23.20;;;4.00;99.90;;;;;;5022144;28;20049;-70
2022/12/02 07:55:57;;;;;;;56.67;25.52;;;4.00;99.90;;;;;;5020981;28;20111;-70
2022/12/02 07:58:24;;;;;;;52.53;24.70;;;4.00;99.90;;;;;;5010304;28;20049;-70
2022/12/02 08:01:12;;;;;;;48.58;23.17;;;4.00;99.90;;;;;;5020856;28;20041;-70
2022/12/02 08:03:45;;;;;;;50.17;23.70;;;4.00;99.90;;;;;;5030360;28;20048;-70
2022/12/02 08:06:12;;;;;;;52.92;25.15;;;4.00;99.90;;;;;;5030126;28;20140;-69
2022/12/02 08:08:40;;;;;;;56.92;26.90;;;4.00;99.90;;;;;;5031846;28;20064;-71
2022/12/02 08:11:07;;;;;;;52.70;25.73;;;4.00;99.90;;;;;;5015574;28;20037;-70
2022/12/02 08:13:34;;;;;;;60.88;25.98;;;4.00;99.90;;;;;;5012148;28;20482;-70
2022/12/02 08:16:02;;;;;;;58.35;25.55;;;4.00;99.90;;;;;;5010183;28;20136;-70
2022/12/02 08:18:29;;;;;;;55.78;25.80;;;4.00;99.90;;;;;;5019424;28;20080;-71
2022/12/02 08:20:57;;;;;;;56.17;26.35;;;4.00;99.90;;;;;;5031084;28;20049;-70
2022/12/02 08:23:24;;;;;;;58.63;25.95;;;4.00;99.90;;;;;;5026122;28;20065;-70
2022/12/02 08:25:51;;;;;;;53.17;25.38;;;4.10;99.90;;;;;;5030308;28;20030;-70
2022/12/02 08:28:18;;;;;;;59.50;27.25;;;4.00;99.90;;;;;;5012258;28;20067;-70
2022/12/02 08:30:46;;;;;;;53.20;26.15;;;4.00;99.90;;;;;;5007485;28;20538;-70
2022/12/02 08:33:13;;;;;;;55.42;26.13;;;4.10;99.90;;;;;;5030399;28;20473;-70
2022/12/02 08:35:40;;;;;;;53.72;25.23;;;4.10;99.90;;;;;;5028269;28;20116;-70
2022/12/02 08:38:08;;;;;;;58.67;27.95;;;4.10;99.90;;;;;;5031039;28;20037;-70
2022/12/02 08:40:35;;;;;;;52.50;25.92;;;4.10;99.90;;;;;;5020380;28;20356;-70
2022/12/02 08:43:03;;;;;;;50.72;24.48;;;4.20;99.90;;;;;;5024569;28;20563;-70
2022/12/02 08:45:30;;;;;;;56.80;24.88;;;4.20;99.90;;;;;;5017651;28;20149;-71
2022/12/02 08:47:57;;;;;;;57.10;25.92;;;4.30;99.90;;;;;;5003708;28;20045;-70
2022/12/02 08:50:25;;;;;;;51.38;23.85;;;4.20;99.90;;;;;;5012158;28;20068;-71
2022/12/02 08:52:52;;;;;;;51.08;23.90;;;4.20;99.90;;;;;;5020865;28;20072;-70
2022/12/02 08:55:25;;;;;;;52.92;26.48;;;4.30;99.90;;;;;;5030136;28;20100;-70
2022/12/02 08:57:53;;;;;;;60.95;25.98;;;4.30;99.90;;;;;;5017204;28;20381;-70
2022/12/02 09:00:20;;;;;;;56.28;26.83;;;4.40;99.90;;;;;;5031425;28;20038;-70
2022/12/02 09:02:48;;;;;;;54.55;24.85;;;4.40;99.90;;;;;;5029012;28;20472;-71
2022/12/02 09:05:31;;;;;;;55.90;26.38;;;4.40;99.90;;;;;;5027288;28;20049;-71
2022/12/02 09:07:58;;;;;;;56.65;25.05;;;4.40;99.90;;;;;;5010919;28;20092;-71
2022/12/02 09:10:26;;;;;;;55.80;25.80;;;4.40;99.90;;;;;;5010900;28;20105;-71
2022/12/02 09:12:53;;;;;;;60.95;26.35;;;4.40;99.90;;;;;;4995602;28;20104;-71
2022/12/02 09:15:20;;;;;;;62.70;28.48;;;4.50;99.90;;;;;;5029261;28;20038;-71
2022/12/02 09:17:49;;;;;;;59.08;27.48;;;4.50;99.90;;;;;;5023175;28;20061;-71
2022/12/02 09:20:16;;;;;;;57.15;28.25;;;4.40;99.90;;;;;;5028920;28;20462;-71
2022/12/02 09:22:44;;;;;;;59.58;29.25;;;4.50;99.90;;;;;;5028871;28;20049;-71
2022/12/02 09:25:13;;;;;;;61.28;28.25;;;4.50;99.90;;;;;;5025434;28;20147;-72
2022/12/02 09:27:41;;;;;;;63.88;28.83;;;4.60;99.90;;;;;;5020754;28;20103;-70
2022/12/02 09:30:10;;;;;;;55.47;27.63;;;4.60;99.90;;;;;;5029447;28;20075;-70
2022/12/02 09:32:38;;;;;;;58.10;27.17;;;4.60;99.90;;;;;;5030399;28;20072;-70
2022/12/02 09:35:05;;;;;;;60.58;28.45;;;4.60;99.90;;;;;;5027285;28;20057;-70
2022/12/02 09:37:32;;;;;;;57.53;27.55;;;4.50;99.90;;;;;;5028865;28;20083;-71
2022/12/02 09:40:00;;;;;;;62.90;28.92;;;4.50;99.90;;;;;;5029343;28;20453;-69
2022/12/02 09:42:28;;;;;;;68.93;29.73;;;4.50;99.90;;;;;;5014074;28;20053;-72
2022/12/02 09:44:57;;;;;;;60.35;28.48;;;4.40;99.90;;;;;;5023722;28;20740;-71
2022/12/02 09:47:25;;;;;;;63.35;29.00;;;4.30;99.90;;;;;;5019537;28;20145;-71
2022/12/02 09:49:53;;;;;;;63.95;28.67;;;4.30;99.90;;;;;;5026540;28;20038;-71
2022/12/02 09:52:26;;;;;;;60.47;28.02;;;4.20;99.90;;;;;;5026230;28;20037;-71
2022/12/02 09:54:56;;;;;;;65.88;28.30;;;4.30;99.90;;;;;;5030514;28;20033;-70
2022/12/02 09:57:29;;;;;;;65.22;28.45;;;4.30;99.90;;;;;;5028940;28;20049;-71
2022/12/02 10:00:06;;;;;;;65.95;29.83;;;4.40;99.90;;;;;;5023123;28;20112;-70
2022/12/02 10:02:52;;;;;;;65.53;28.20;;;4.40;99.90;;;;;;5024191;28;20113;-70
2022/12/02 10:05:28;;;;;;;66.55;29.33;;;4.40;99.90;;;;;;5019588;28;20404;-70
2022/12/02 10:07:58;;;;;;;60.17;29.40;;;4.50;99.90;;;;;;5027459;28;20061;-70
2022/12/02 10:10:29;;;;;;;64.15;28.88;;;4.40;99.90;;;;;;5027934;28;20052;-71
2022/12/02 10:12:57;;;;;;;65.63;30.70;;;4.40;99.90;;;;;;5029003;28;20064;-70
2022/12/02 10:15:32;;;;;;;63.58;28.83;;;4.50;99.90;;;;;;5029768;28;20049;-71
2022/12/02 10:18:07;;;;;;;65.25;29.52;;;4.40;99.90;;;;;;5028606;28;20145;-70
2022/12/02 10:20:35;;;;;;;68.40;30.67;;;4.60;99.90;;;;;;5003292;28;20046;-70
2022/12/02 10:23:22;;;;;;;69.32;31.13;;;4.60;99.90;;;;;;5027973;28;20452;-70
2022/12/02 10:25:53;;;;;;;66.65;29.33;;;4.60;99.90;;;;;;5029162;28;20041;-71
2022/12/02 10:28:31;;;;;;;60.78;28.55;;;4.60;99.90;;;;;;5022328;28;20056;-71
2022/12/02 10:31:11;;;;;;;63.17;28.77;;;4.60;99.90;;;;;;5030441;28;20045;-70
2022/12/02 10:33:51;;;;;;;53.90;25.92;;;4.50;99.90;;;;;;5028482;28;20049;-69
2022/12/02 10:36:43;;;;;;;67.70;29.83;;;4.50;99.90;;;;;;5005514;28;20172;-70
2022/12/02 10:39:17;;;;;;;64.07;29.92;;;4.50;99.90;;;;;;5028748;28;20080;-71
2022/12/02 10:41:46;;;;;;;58.78;27.88;;;4.60;99.90;;;;;;5030670;28;20137;-70
2022/12/02 10:44:15;;;;;;;64.25;28.90;;;4.60;99.90;;;;;;5029068;28;20045;-70
2022/12/02 10:46:42;;;;;;;60.78;29.27;;;4.60;99.90;;;;;;5026108;28;20052;-70
2022/12/02 10:49:23;;;;;;;62.08;28.17;;;4.60;99.90;;;;;;5023499;28;20080;-70
2022/12/02 10:51:51;;;;;;;58.13;27.65;;;4.60;99.90;;;;;;4996116;28;20041;-70
2022/12/02 10:54:32;;;;;;;62.25;29.95;;;4.60;99.90;;;;;;5028807;28;20111;-70
2022/12/02 10:57:31;;;;;;;61.88;28.08;;;4.60;99.90;;;;;;5024358;28;20046;-70
2022/12/02 11:00:04;;;;;;;60.35;26.65;;;4.50;99.90;;;;;;5026651;28;20033;-70
2022/12/02 11:02:35;;;;;;;59.13;28.15;;;4.60;99.90;;;;;;5030356;28;20148;-71
2022/12/02 11:05:20;;;;;;;60.38;27.83;;;4.70;99.90;;;;;;5023085;28;20473;-71
2022/12/02 11:07:59;;;;;;;62.83;27.17;;;4.80;99.90;;;;;;5027934;28;20454;-70
2022/12/02 11:10:39;;;;;;;58.00;25.67;;;4.80;99.90;;;;;;5011881;28;20112;-70
2022/12/02 11:13:12;;;;;;;64.18;27.35;;;4.80;99.90;;;;;;5006793;28;20875;-70
2022/12/02 11:15:49;;;;;;;57.00;27.10;;;4.80;99.90;;;;;;5020437;28;20041;-70
2022/12/02 11:18:22;;;;;;;59.85;27.65;;;4.80;99.90;;;;;;5017920;28;20079;-70
2022/12/02 11:20:54;;;;;;;60.90;27.98;;;4.90;99.90;;;;;;5022168;28;20046;-70
2022/12/02 11:23:27;;;;;;;59.72;27.05;;;4.80;99.90;;;;;;5029304;28;20041;-70
2022/12/02 11:25:58;;;;;;;54.08;24.67;;;4.90;99.90;;;;;;5028560;28;20099;-71
2022/12/02 11:28:28;;;;;;;56.23;26.80;;;4.90;99.90;;;;;;5029837;28;20496;-70
2022/12/02 11:31:11;;;;;;;56.13;27.95;;;4.90;99.90;;;;;;5018461;28;20403;-70
2022/12/02 11:33:47;;;;;;;54.63;25.70;;;4.80;99.90;;;;;;5008196;28;20042;-70
2022/12/02 11:36:24;;;;;;;53.10;25.92;;;4.70;99.90;;;;;;5012397;28;20115;-70
2022/12/02 11:38:52;;;;;;;53.42;26.05;;;4.70;99.90;;;;;;5023434;28;20087;-69
2022/12/02 11:41:25;;;;;;;49.72;23.73;;;4.50;99.90;;;;;;4994567;28;20132;-70
2022/12/02 11:43:59;;;;;;;53.55;24.02;;;4.60;99.90;;;;;;5022566;28;20048;-70
2022/12/02 11:46:51;;;;;;;49.80;23.77;;;4.50;99.90;;;;;;5020531;28;20042;-70
2022/12/02 11:49:20;;;;;;;;;;;4.50;99.90;;;;;;5029580;28;20091;-71
2022/12/02 11:51:48;;;;;;;52.13;23.80;;;4.40;99.90;;;;;;5029139;28;20049;-70
2022/12/02 11:54:17;;;;;;;57.58;26.00;;;4.40;99.90;;;;;;5030242;28;20491;-71
2022/12/02 11:56:45;;;;;;;55.20;26.88;;;4.40;99.90;;;;;;5028265;28;20127;-71
2022/12/02 11:59:35;;;;;;;52.58;24.58;;;4.40;99.90;;;;;;5029755;28;20152;-71
2022/12/02 12:02:17;;;;;;;48.92;24.55;;;4.30;99.90;;;;;;5017254;28;20504;-71
2022/12/02 12:04:45;;;;;;;52.47;25.13;;;4.20;99.90;;;;;;5025345;28;20049;-71
2022/12/02 12:07:14;;;;;;;50.17;23.67;;;4.20;99.90;;;;;;5019538;28;20045;-71
2022/12/02 12:09:41;;;;;;;51.05;24.80;;;4.30;99.90;;;;;;5027392;28;20041;-71
2022/12/02 12:12:12;;;;;;;48.63;23.42;;;4.20;99.90;;;;;;5028328;28;20179;-71
2022/12/02 12:15:00;;;;;;;51.08;25.45;;;4.20;99.90;;;;;;5010790;28;20052;-70
2022/12/02 12:17:39;;;;;;;49.58;23.70;;;4.20;99.90;;;;;;5019829;28;20057;-71
2022/12/02 12:20:12;;;;;;;50.58;23.45;;;4.20;99.90;;;;;;5026010;28;20056;-70
2022/12/02 12:22:40;;;;;;;46.72;23.30;;;4.20;99.90;;;;;;5023098;28;20103;-70
2022/12/02 12:25:31;;;;;;;45.20;22.98;;;4.10;99.90;;;;;;5024856;28;20556;-70
2022/12/02 12:27:59;;;;;;;47.70;23.17;;;4.10;99.90;;;;;;5009863;28;20512;-71
2022/12/02 12:30:26;;;;;;;51.38;23.65;;;4.10;99.90;;;;;;5027974;28;20077;-71
2022/12/02 12:32:54;;;;;;;50.05;23.77;;;4.20;99.90;;;;;;5023111;28;20133;-70
2022/12/02 12:35:21;;;;;;;50.63;23.45;;;4.30;99.90;;;;;;5025892;28;20046;-68
2022/12/02 12:37:49;;;;;;;42.47;20.83;;;4.40;99.90;;;;;;5007341;28;20381;-71
2022/12/02 12:40:16;;;;;;;48.42;22.88;;;4.40;99.90;;;;;;5016992;28;20095;-70
2022/12/02 12:42:44;;;;;;;48.22;22.83;;;4.40;99.90;;;;;;5010508;28;20133;-70
2022/12/02 12:45:11;;;;;;;46.38;22.70;;;4.30;99.90;;;;;;5022309;28;20088;-71
2022/12/02 12:47:38;;;;;;;44.90;22.92;;;4.30;99.90;;;;;;5017838;28;20041;-70
2022/12/02 12:50:06;;;;;;;49.22;22.42;;;4.40;99.90;;;;;;5032342;28;20143;-70
2022/12/02 12:52:34;;;;;;;44.35;21.92;;;4.50;99.90;;;;;;5021988;28;20037;-70
2022/12/02 12:55:02;;;;;;;45.00;22.88;;;4.50;99.90;;;;;;5028093;28;20449;-70
2022/12/02 12:57:29;;;;;;;42.58;21.25;;;4.50;99.90;;;;;;5029447;28;20053;-70
2022/12/02 12:59:57;;;;;;;38.78;20.75;;;4.50;99.90;;;;;;5019340;28;20104;-70